sensor_id;sensor_type;location;lat;lon;timestamp;P1;durP1;ratioP1;P2;durP2;ratioP2
76475;SDS011;65308;50.078;14.854;2023-04-03T00:00:03;6.50;;;2.80;;
76475;SDS011;65308;50.078;14.854;2023-04-03T00:02:30;4.75;;;2.60;;
76475;SDS011;65308;50.078;14.854;2023-04-03T00:04:57;6.78;;;2.67;;
76475;SDS011;65308;50.078;14.854;2023-04-03T00:07:25;4.65;;;2.03;;
76475;SDS011;65308;50.078;14.854;2023-04-03T00:09:51;4.90;;;2.58;;
76475;SDS011;65308;50.078;14.854;2023-04-03T00:12:18;4.28;;;2.05;;
76475;SDS011;65308;50.078;14.854;2023-04-03T00:14:45;6.15;;;2.72;;
76475;SDS011;65308;50.078;14.854;2023-04-03T00:17:11;4.93;;;2.45;;
76475;SDS011;65308;50.078;14.854;2023-04-03T00:19:38;4.53;;;2.45;;
76475;SDS011;65308;50.078;14.854;2023-04-03T00:22:05;6.75;;;2.78;;
76475;SDS011;65308;50.078;14.854;2023-04-03T00:24:33;4.80;;;2.45;;
76475;SDS011;65308;50.078;14.854;2023-04-03T00:26:59;3.95;;;2.13;;
76475;SDS011;65308;50.078;14.854;2023-04-03T00:29:26;4.15;;;2.30;;
76475;SDS011;65308;50.078;14.854;2023-04-03T00:31:53;5.25;;;2.15;;
76475;SDS011;65308;50.078;14.854;2023-04-03T00:34:19;4.85;;;2.63;;
76475;SDS011;65308;50.078;14.854;2023-04-03T00:36:46;3.97;;;2.13;;
76475;SDS011;65308;50.078;14.854;2023-04-03T00:39:13;5.72;;;2.65;;
76475;SDS011;65308;50.078;14.854;2023-04-03T00:41:41;6.78;;;2.58;;
76475;SDS011;65308;50.078;14.854;2023-04-03T00:44:20;6.25;;;2.72;;
76475;SDS011;65308;50.078;14.854;2023-04-03T00:46:48;5.07;;;2.67;;
76475;SDS011;65308;50.078;14.854;2023-04-03T00:49:15;5.40;;;2.40;;
76475;SDS011;65308;50.078;14.854;2023-04-03T00:51:42;5.72;;;2.97;;
76475;SDS011;65308;50.078;14.854;2023-04-03T00:54:09;5.07;;;2.42;;
76475;SDS011;65308;50.078;14.854;2023-04-03T00:56:36;5.72;;;3.10;;
76475;SDS011;65308;50.078;14.854;2023-04-03T00:59:06;6.22;;;2.80;;
76475;SDS011;65308;50.078;14.854;2023-04-03T01:01:36;6.22;;;2.90;;
76475;SDS011;65308;50.078;14.854;2023-04-03T01:04:04;5.80;;;2.90;;
76475;SDS011;65308;50.078;14.854;2023-04-03T01:06:32;6.40;;;2.75;;
76475;SDS011;65308;50.078;14.854;2023-04-03T01:09:01;5.32;;;2.65;;
76475;SDS011;65308;50.078;14.854;2023-04-03T01:11:28;5.85;;;3.10;;
76475;SDS011;65308;50.078;14.854;2023-04-03T01:13:54;6.78;;;3.00;;
76475;SDS011;65308;50.078;14.854;2023-04-03T01:16:22;5.53;;;2.80;;
76475;SDS011;65308;50.078;14.854;2023-04-03T01:18:49;5.90;;;2.65;;
76475;SDS011;65308;50.078;14.854;2023-04-03T01:24:26;4.95;;;2.40;;
76475;SDS011;65308;50.078;14.854;2023-04-03T01:26:58;3.65;;;2.25;;
76475;SDS011;65308;50.078;14.854;2023-04-03T01:29:25;5.03;;;2.50;;
76475;SDS011;65308;50.078;14.854;2023-04-03T01:31:54;6.07;;;2.17;;
76475;SDS011;65308;50.078;14.854;2023-04-03T01:34:22;3.60;;;2.03;;
76475;SDS011;65308;50.078;14.854;2023-04-03T01:36:50;4.57;;;2.08;;
76475;SDS011;65308;50.078;14.854;2023-04-03T01:39:17;5.03;;;1.90;;
76475;SDS011;65308;50.078;14.854;2023-04-03T01:41:44;4.45;;;1.90;;
76475;SDS011;65308;50.078;14.854;2023-04-03T01:44:11;4.65;;;2.03;;
76475;SDS011;65308;50.078;14.854;2023-04-03T01:46:38;4.45;;;1.90;;
76475;SDS011;65308;50.078;14.854;2023-04-03T01:49:07;4.88;;;2.28;;
76475;SDS011;65308;50.078;14.854;2023-04-03T01:51:34;4.47;;;2.53;;
76475;SDS011;65308;50.078;14.854;2023-04-03T01:54:01;4.65;;;2.13;;
76475;SDS011;65308;50.078;14.854;2023-04-03T01:56:28;6.13;;;2.90;;
76475;SDS011;65308;50.078;14.854;2023-04-03T01:58:55;3.83;;;2.20;;
76475;SDS011;65308;50.078;14.854;2023-04-03T02:01:21;5.97;;;2.67;;
76475;SDS011;65308;50.078;14.854;2023-04-03T02:03:48;5.80;;;2.50;;
76475;SDS011;65308;50.078;14.854;2023-04-03T02:06:16;4.40;;;2.40;;
76475;SDS011;65308;50.078;14.854;2023-04-03T02:08:43;4.40;;;2.35;;
76475;SDS011;65308;50.078;14.854;2023-04-03T02:11:09;5.35;;;2.50;;
76475;SDS011;65308;50.078;14.854;2023-04-03T02:13:36;4.53;;;2.35;;
76475;SDS011;65308;50.078;14.854;2023-04-03T02:16:06;4.13;;;2.33;;
76475;SDS011;65308;50.078;14.854;2023-04-03T02:18:34;6.15;;;2.47;;
76475;SDS011;65308;50.078;14.854;2023-04-03T02:21:01;5.30;;;2.70;;
76475;SDS011;65308;50.078;14.854;2023-04-03T02:23:30;6.97;;;2.92;;
76475;SDS011;65308;50.078;14.854;2023-04-03T02:26:02;5.20;;;2.70;;
76475;SDS011;65308;50.078;14.854;2023-04-03T02:28:30;5.47;;;2.40;;
76475;SDS011;65308;50.078;14.854;2023-04-03T02:30:57;5.78;;;3.00;;
76475;SDS011;65308;50.078;14.854;2023-04-03T02:33:23;5.22;;;2.60;;
76475;SDS011;65308;50.078;14.854;2023-04-03T02:35:52;5.63;;;2.70;;
76475;SDS011;65308;50.078;14.854;2023-04-03T02:38:19;5.32;;;2.53;;
76475;SDS011;65308;50.078;14.854;2023-04-03T02:40:47;6.03;;;2.95;;
76475;SDS011;65308;50.078;14.854;2023-04-03T02:43:14;3.97;;;2.42;;
76475;SDS011;65308;50.078;14.854;2023-04-03T02:45:41;5.38;;;2.67;;
76475;SDS011;65308;50.078;14.854;2023-04-03T02:48:07;6.10;;;2.50;;
76475;SDS011;65308;50.078;14.854;2023-04-03T02:50:34;6.80;;;2.70;;
76475;SDS011;65308;50.078;14.854;2023-04-03T02:53:01;5.80;;;2.50;;
76475;SDS011;65308;50.078;14.854;2023-04-03T02:55:28;5.55;;;2.58;;
76475;SDS011;65308;50.078;14.854;2023-04-03T02:57:56;6.38;;;2.70;;
76475;SDS011;65308;50.078;14.854;2023-04-03T03:00:22;5.38;;;2.42;;
76475;SDS011;65308;50.078;14.854;2023-04-03T03:02:49;5.63;;;2.78;;
76475;SDS011;65308;50.078;14.854;2023-04-03T03:05:15;7.43;;;2.70;;
76475;SDS011;65308;50.078;14.854;2023-04-03T03:07:43;6.05;;;2.72;;
76475;SDS011;65308;50.078;14.854;2023-04-03T03:10:09;5.22;;;2.40;;
76475;SDS011;65308;50.078;14.854;2023-04-03T03:12:38;4.95;;;2.47;;
76475;SDS011;65308;50.078;14.854;2023-04-03T03:15:07;7.15;;;2.67;;
76475;SDS011;65308;50.078;14.854;2023-04-03T03:17:34;4.28;;;2.30;;
76475;SDS011;65308;50.078;14.854;2023-04-03T03:20:01;4.72;;;2.28;;
76475;SDS011;65308;50.078;14.854;2023-04-03T03:22:28;3.97;;;2.00;;
76475;SDS011;65308;50.078;14.854;2023-04-03T03:24:55;8.20;;;2.50;;
76475;SDS011;65308;50.078;14.854;2023-04-03T03:27:21;5.68;;;2.20;;
76475;SDS011;65308;50.078;14.854;2023-04-03T03:29:49;6.15;;;2.17;;
76475;SDS011;65308;50.078;14.854;2023-04-03T03:32:17;5.07;;;2.10;;
76475;SDS011;65308;50.078;14.854;2023-04-03T03:34:44;6.03;;;2.20;;
76475;SDS011;65308;50.078;14.854;2023-04-03T03:37:11;2.75;;;1.70;;
76475;SDS011;65308;50.078;14.854;2023-04-03T03:39:37;5.18;;;2.13;;
76475;SDS011;65308;50.078;14.854;2023-04-03T03:42:04;4.90;;;1.90;;
76475;SDS011;65308;50.078;14.854;2023-04-03T03:44:31;4.97;;;1.95;;
76475;SDS011;65308;50.078;14.854;2023-04-03T03:46:57;4.43;;;1.67;;
76475;SDS011;65308;50.078;14.854;2023-04-03T03:49:26;2.80;;;1.60;;
76475;SDS011;65308;50.078;14.854;2023-04-03T03:51:53;5.10;;;1.77;;
76475;SDS011;65308;50.078;14.854;2023-04-03T03:54:20;6.30;;;2.15;;
76475;SDS011;65308;50.078;14.854;2023-04-03T03:56:46;6.55;;;2.20;;
76475;SDS011;65308;50.078;14.854;2023-04-03T03:59:13;5.22;;;1.90;;
76475;SDS011;65308;50.078;14.854;2023-04-03T04:01:40;5.30;;;2.10;;
76475;SDS011;65308;50.078;14.854;2023-04-03T04:04:06;4.45;;;2.13;;
76475;SDS011;65308;50.078;14.854;2023-04-03T04:06:34;8.35;;;2.20;;
76475;SDS011;65308;50.078;14.854;2023-04-03T04:09:01;7.88;;;2.10;;
76475;SDS011;65308;50.078;14.854;2023-04-03T04:11:28;3.92;;;1.90;;
76475;SDS011;65308;50.078;14.854;2023-04-03T04:13:54;5.70;;;2.40;;
76475;SDS011;65308;50.078;14.854;2023-04-03T04:16:21;6.18;;;2.28;;
76475;SDS011;65308;50.078;14.854;2023-04-03T04:18:47;5.93;;;2.10;;
76475;SDS011;65308;50.078;14.854;2023-04-03T04:21:14;7.35;;;2.38;;
76475;SDS011;65308;50.078;14.854;2023-04-03T04:23:42;5.68;;;2.47;;
76475;SDS011;65308;50.078;14.854;2023-04-03T04:28:35;4.68;;;1.90;;
76475;SDS011;65308;50.078;14.854;2023-04-03T04:31:05;6.00;;;2.10;;
76475;SDS011;65308;50.078;14.854;2023-04-03T04:33:45;5.57;;;2.08;;
76475;SDS011;65308;50.078;14.854;2023-04-03T04:36:16;6.28;;;2.25;;
76475;SDS011;65308;50.078;14.854;2023-04-03T04:42:00;4.93;;;2.05;;
76475;SDS011;65308;50.078;14.854;2023-04-03T04:44:27;5.47;;;2.40;;
76475;SDS011;65308;50.078;14.854;2023-04-03T04:47:03;7.55;;;2.40;;
76475;SDS011;65308;50.078;14.854;2023-04-03T04:49:35;6.25;;;2.25;;
76475;SDS011;65308;50.078;14.854;2023-04-03T04:52:01;13.38;;;2.70;;
76475;SDS011;65308;50.078;14.854;2023-04-03T04:54:30;6.45;;;2.13;;
76475;SDS011;65308;50.078;14.854;2023-04-03T04:57:01;6.63;;;2.05;;
76475;SDS011;65308;50.078;14.854;2023-04-03T04:59:41;4.07;;;2.05;;
76475;SDS011;65308;50.078;14.854;2023-04-03T05:02:09;7.05;;;2.30;;
76475;SDS011;65308;50.078;14.854;2023-04-03T05:04:36;4.53;;;1.80;;
76475;SDS011;65308;50.078;14.854;2023-04-03T05:07:02;3.40;;;1.67;;
76475;SDS011;65308;50.078;14.854;2023-04-03T05:09:31;5.53;;;2.58;;
76475;SDS011;65308;50.078;14.854;2023-04-03T05:11:57;3.67;;;1.88;;
76475;SDS011;65308;50.078;14.854;2023-04-03T05:14:24;5.28;;;2.00;;
76475;SDS011;65308;50.078;14.854;2023-04-03T05:16:51;4.47;;;2.05;;
76475;SDS011;65308;50.078;14.854;2023-04-03T05:19:19;5.57;;;2.20;;
76475;SDS011;65308;50.078;14.854;2023-04-03T05:21:45;4.03;;;1.90;;
76475;SDS011;65308;50.078;14.854;2023-04-03T05:24:12;4.22;;;2.10;;
76475;SDS011;65308;50.078;14.854;2023-04-03T05:26:41;5.70;;;2.42;;
76475;SDS011;65308;50.078;14.854;2023-04-03T05:29:07;4.07;;;2.00;;
76475;SDS011;65308;50.078;14.854;2023-04-03T05:31:34;4.22;;;2.05;;
76475;SDS011;65308;50.078;14.854;2023-04-03T05:34:01;5.13;;;2.00;;
76475;SDS011;65308;50.078;14.854;2023-04-03T05:36:27;4.97;;;2.20;;
76475;SDS011;65308;50.078;14.854;2023-04-03T05:38:54;4.32;;;2.30;;
76475;SDS011;65308;50.078;14.854;2023-04-03T05:41:22;4.43;;;2.22;;
76475;SDS011;65308;50.078;14.854;2023-04-03T05:46:18;5.25;;;2.30;;
76475;SDS011;65308;50.078;14.854;2023-04-03T05:48:46;6.20;;;2.42;;
76475;SDS011;65308;50.078;14.854;2023-04-03T05:51:14;4.65;;;2.22;;
76475;SDS011;65308;50.078;14.854;2023-04-03T05:53:42;6.25;;;2.33;;
76475;SDS011;65308;50.078;14.854;2023-04-03T05:58:36;4.93;;;2.72;;
76475;SDS011;65308;50.078;14.854;2023-04-03T06:01:05;6.13;;;2.95;;
76475;SDS011;65308;50.078;14.854;2023-04-03T06:03:31;5.65;;;3.28;;
76475;SDS011;65308;50.078;14.854;2023-04-03T06:05:58;6.25;;;2.70;;
76475;SDS011;65308;50.078;14.854;2023-04-03T06:08:25;5.40;;;2.97;;
76475;SDS011;65308;50.078;14.854;2023-04-03T06:10:52;5.65;;;3.13;;
76475;SDS011;65308;50.078;14.854;2023-04-03T06:13:18;5.57;;;2.95;;
76475;SDS011;65308;50.078;14.854;2023-04-03T06:15:45;6.20;;;2.90;;
76475;SDS011;65308;50.078;14.854;2023-04-03T06:18:14;6.22;;;2.97;;
76475;SDS011;65308;50.078;14.854;2023-04-03T06:20:40;6.43;;;3.53;;
76475;SDS011;65308;50.078;14.854;2023-04-03T06:23:07;5.60;;;3.17;;
76475;SDS011;65308;50.078;14.854;2023-04-03T06:25:34;5.50;;;3.20;;
76475;SDS011;65308;50.078;14.854;2023-04-03T06:28:00;6.30;;;3.25;;
76475;SDS011;65308;50.078;14.854;2023-04-03T06:30:27;5.78;;;3.30;;
76475;SDS011;65308;50.078;14.854;2023-04-03T06:32:53;5.00;;;3.10;;
76475;SDS011;65308;50.078;14.854;2023-04-03T06:35:21;5.63;;;3.10;;
76475;SDS011;65308;50.078;14.854;2023-04-03T06:37:50;6.20;;;3.42;;
76475;SDS011;65308;50.078;14.854;2023-04-03T06:40:18;5.05;;;2.95;;
76475;SDS011;65308;50.078;14.854;2023-04-03T06:42:47;5.22;;;3.10;;
76475;SDS011;65308;50.078;14.854;2023-04-03T06:45:14;5.10;;;3.40;;
76475;SDS011;65308;50.078;14.854;2023-04-03T06:47:40;6.38;;;3.42;;
76475;SDS011;65308;50.078;14.854;2023-04-03T06:50:09;6.05;;;3.35;;
76475;SDS011;65308;50.078;14.854;2023-04-03T06:52:40;6.35;;;3.17;;
76475;SDS011;65308;50.078;14.854;2023-04-03T06:55:07;5.07;;;3.38;;
76475;SDS011;65308;50.078;14.854;2023-04-03T06:57:35;6.28;;;3.88;;
76475;SDS011;65308;50.078;14.854;2023-04-03T07:00:03;5.60;;;3.90;;
76475;SDS011;65308;50.078;14.854;2023-04-03T07:02:31;7.00;;;4.18;;
76475;SDS011;65308;50.078;14.854;2023-04-03T07:04:57;6.10;;;4.32;;
76475;SDS011;65308;50.078;14.854;2023-04-03T07:07:24;5.10;;;3.42;;
76475;SDS011;65308;50.078;14.854;2023-04-03T07:09:53;5.32;;;3.45;;
76475;SDS011;65308;50.078;14.854;2023-04-03T07:12:21;6.35;;;3.88;;
76475;SDS011;65308;50.078;14.854;2023-04-03T07:14:48;6.53;;;3.88;;
76475;SDS011;65308;50.078;14.854;2023-04-03T07:17:14;5.68;;;3.85;;
76475;SDS011;65308;50.078;14.854;2023-04-03T07:19:41;5.60;;;3.70;;
76475;SDS011;65308;50.078;14.854;2023-04-03T07:22:08;5.57;;;3.83;;
76475;SDS011;65308;50.078;14.854;2023-04-03T07:24:36;5.07;;;3.60;;
76475;SDS011;65308;50.078;14.854;2023-04-03T07:27:04;7.07;;;3.95;;
76475;SDS011;65308;50.078;14.854;2023-04-03T07:29:31;6.47;;;3.92;;
76475;SDS011;65308;50.078;14.854;2023-04-03T07:31:58;5.40;;;4.43;;
76475;SDS011;65308;50.078;14.854;2023-04-03T07:34:24;6.03;;;4.20;;
76475;SDS011;65308;50.078;14.854;2023-04-03T07:36:51;5.03;;;3.97;;
76475;SDS011;65308;50.078;14.854;2023-04-03T07:39:18;4.50;;;3.30;;
76475;SDS011;65308;50.078;14.854;2023-04-03T07:41:45;4.90;;;3.97;;
76475;SDS011;65308;50.078;14.854;2023-04-03T07:44:13;6.00;;;3.78;;
76475;SDS011;65308;50.078;14.854;2023-04-03T07:46:40;5.88;;;4.05;;
76475;SDS011;65308;50.078;14.854;2023-04-03T07:51:33;5.68;;;3.92;;
76475;SDS011;65308;50.078;14.854;2023-04-03T07:54:00;5.45;;;3.80;;
76475;SDS011;65308;50.078;14.854;2023-04-03T07:56:27;5.90;;;3.83;;
76475;SDS011;65308;50.078;14.854;2023-04-03T07:58:54;5.05;;;3.25;;
76475;SDS011;65308;50.078;14.854;2023-04-03T08:01:22;7.05;;;3.75;;
76475;SDS011;65308;50.078;14.854;2023-04-03T08:03:49;5.85;;;3.63;;
76475;SDS011;65308;50.078;14.854;2023-04-03T08:06:15;5.70;;;3.10;;
76475;SDS011;65308;50.078;14.854;2023-04-03T08:08:42;5.85;;;3.75;;
76475;SDS011;65308;50.078;14.854;2023-04-03T08:11:09;5.55;;;3.90;;
76475;SDS011;65308;50.078;14.854;2023-04-03T08:13:37;6.40;;;4.22;;
76475;SDS011;65308;50.078;14.854;2023-04-03T08:16:07;6.57;;;3.60;;
76475;SDS011;65308;50.078;14.854;2023-04-03T08:18:36;5.72;;;3.25;;
76475;SDS011;65308;50.078;14.854;2023-04-03T08:21:05;7.03;;;3.88;;
76475;SDS011;65308;50.078;14.854;2023-04-03T08:23:33;6.40;;;3.20;;
76475;SDS011;65308;50.078;14.854;2023-04-03T08:26:08;5.00;;;3.35;;
76475;SDS011;65308;50.078;14.854;2023-04-03T08:28:35;5.43;;;3.20;;
76475;SDS011;65308;50.078;14.854;2023-04-03T08:31:04;5.97;;;3.35;;
76475;SDS011;65308;50.078;14.854;2023-04-03T08:33:32;6.05;;;3.20;;
76475;SDS011;65308;50.078;14.854;2023-04-03T08:36:02;7.03;;;2.90;;
76475;SDS011;65308;50.078;14.854;2023-04-03T08:38:30;4.60;;;3.30;;
76475;SDS011;65308;50.078;14.854;2023-04-03T08:41:01;5.88;;;2.78;;
76475;SDS011;65308;50.078;14.854;2023-04-03T08:43:34;5.45;;;2.85;;
76475;SDS011;65308;50.078;14.854;2023-04-03T08:46:05;4.97;;;2.65;;
76475;SDS011;65308;50.078;14.854;2023-04-03T08:48:40;5.28;;;2.92;;
76475;SDS011;65308;50.078;14.854;2023-04-03T08:51:11;4.65;;;2.70;;
76475;SDS011;65308;50.078;14.854;2023-04-03T08:53:42;4.70;;;2.67;;
76475;SDS011;65308;50.078;14.854;2023-04-03T08:56:12;4.82;;;2.58;;
76475;SDS011;65308;50.078;14.854;2023-04-03T08:58:44;4.63;;;2.55;;
76475;SDS011;65308;50.078;14.854;2023-04-03T09:01:17;5.00;;;2.92;;
76475;SDS011;65308;50.078;14.854;2023-04-03T09:03:46;5.90;;;2.83;;
76475;SDS011;65308;50.078;14.854;2023-04-03T09:06:15;3.33;;;2.20;;
76475;SDS011;65308;50.078;14.854;2023-04-03T09:08:47;3.83;;;2.40;;
76475;SDS011;65308;50.078;14.854;2023-04-03T09:11:19;3.72;;;2.45;;
76475;SDS011;65308;50.078;14.854;2023-04-03T09:13:52;5.05;;;2.63;;
76475;SDS011;65308;50.078;14.854;2023-04-03T09:16:31;4.13;;;2.33;;
76475;SDS011;65308;50.078;14.854;2023-04-03T09:19:06;4.00;;;2.30;;
76475;SDS011;65308;50.078;14.854;2023-04-03T09:21:42;4.15;;;2.53;;
76475;SDS011;65308;50.078;14.854;2023-04-03T09:24:09;3.80;;;2.28;;
76475;SDS011;65308;50.078;14.854;2023-04-03T09:26:41;4.57;;;2.30;;
76475;SDS011;65308;50.078;14.854;2023-04-03T09:29:14;3.78;;;1.92;;
76475;SDS011;65308;50.078;14.854;2023-04-03T09:31:44;4.20;;;2.17;;
76475;SDS011;65308;50.078;14.854;2023-04-03T09:34:14;4.03;;;2.30;;
76475;SDS011;65308;50.078;14.854;2023-04-03T09:36:48;3.67;;;2.10;;
76475;SDS011;65308;50.078;14.854;2023-04-03T09:39:17;5.18;;;2.40;;
76475;SDS011;65308;50.078;14.854;2023-04-03T09:41:57;4.45;;;2.47;;
76475;SDS011;65308;50.078;14.854;2023-04-03T09:44:27;3.95;;;2.05;;
76475;SDS011;65308;50.078;14.854;2023-04-03T09:46:54;3.58;;;2.20;;
76475;SDS011;65308;50.078;14.854;2023-04-03T09:49:21;3.67;;;2.08;;
76475;SDS011;65308;50.078;14.854;2023-04-03T09:51:49;4.00;;;2.00;;
76475;SDS011;65308;50.078;14.854;2023-04-03T09:54:32;4.80;;;2.05;;
76475;SDS011;65308;50.078;14.854;2023-04-03T09:57:15;3.40;;;1.80;;
76475;SDS011;65308;50.078;14.854;2023-04-03T09:59:45;3.80;;;2.03;;
76475;SDS011;65308;50.078;14.854;2023-04-03T10:02:23;5.00;;;2.00;;
76475;SDS011;65308;50.078;14.854;2023-04-03T10:05:02;4.35;;;1.80;;
76475;SDS011;65308;50.078;14.854;2023-04-03T10:09:59;3.80;;;1.77;;
76475;SDS011;65308;50.078;14.854;2023-04-03T10:12:28;3.90;;;1.88;;
76475;SDS011;65308;50.078;14.854;2023-04-03T10:14:56;4.22;;;1.90;;
76475;SDS011;65308;50.078;14.854;2023-04-03T10:17:26;4.63;;;1.90;;
76475;SDS011;65308;50.078;14.854;2023-04-03T10:20:02;3.28;;;2.20;;
76475;SDS011;65308;50.078;14.854;2023-04-03T10:22:42;3.80;;;1.90;;
76475;SDS011;65308;50.078;14.854;2023-04-03T10:25:14;3.35;;;2.00;;
76475;SDS011;65308;50.078;14.854;2023-04-03T10:27:49;4.43;;;1.98;;
76475;SDS011;65308;50.078;14.854;2023-04-03T10:30:23;3.50;;;2.00;;
76475;SDS011;65308;50.078;14.854;2023-04-03T10:32:58;2.78;;;1.73;;
76475;SDS011;65308;50.078;14.854;2023-04-03T10:35:37;3.50;;;1.90;;
76475;SDS011;65308;50.078;14.854;2023-04-03T10:38:14;3.88;;;2.03;;
76475;SDS011;65308;50.078;14.854;2023-04-03T10:40:47;3.10;;;1.80;;
76475;SDS011;65308;50.078;14.854;2023-04-03T10:43:28;3.80;;;1.90;;
76475;SDS011;65308;50.078;14.854;2023-04-03T10:46:03;4.20;;;2.08;;
76475;SDS011;65308;50.078;14.854;2023-04-03T10:51:12;3.22;;;1.90;;
76475;SDS011;65308;50.078;14.854;2023-04-03T10:53:50;2.92;;;1.70;;
76475;SDS011;65308;50.078;14.854;2023-04-03T10:56:24;3.28;;;1.85;;
76475;SDS011;65308;50.078;14.854;2023-04-03T10:58:58;3.15;;;1.60;;
76475;SDS011;65308;50.078;14.854;2023-04-03T11:01:34;2.67;;;1.70;;
76475;SDS011;65308;50.078;14.854;2023-04-03T11:04:05;3.78;;;1.80;;
76475;SDS011;65308;50.078;14.854;2023-04-03T11:06:34;4.97;;;1.80;;
76475;SDS011;65308;50.078;14.854;2023-04-03T11:09:07;3.35;;;1.83;;
76475;SDS011;65308;50.078;14.854;2023-04-03T11:11:42;3.05;;;1.80;;
76475;SDS011;65308;50.078;14.854;2023-04-03T11:14:10;3.85;;;1.73;;
76475;SDS011;65308;50.078;14.854;2023-04-03T11:16:42;4.30;;;2.00;;
76475;SDS011;65308;50.078;14.854;2023-04-03T11:19:14;3.13;;;1.60;;
76475;SDS011;65308;50.078;14.854;2023-04-03T11:21:47;3.60;;;1.70;;
76475;SDS011;65308;50.078;14.854;2023-04-03T11:24:23;4.28;;;1.80;;
76475;SDS011;65308;50.078;14.854;2023-04-03T11:26:53;3.17;;;1.85;;
76475;SDS011;65308;50.078;14.854;2023-04-03T11:29:22;3.47;;;1.70;;
76475;SDS011;65308;50.078;14.854;2023-04-03T11:31:59;4.15;;;1.80;;
76475;SDS011;65308;50.078;14.854;2023-04-03T11:34:36;2.97;;;1.67;;
76475;SDS011;65308;50.078;14.854;2023-04-03T11:37:11;3.67;;;1.90;;
76475;SDS011;65308;50.078;14.854;2023-04-03T11:39:45;3.30;;;1.80;;
76475;SDS011;65308;50.078;14.854;2023-04-03T11:42:16;3.25;;;1.75;;
76475;SDS011;65308;50.078;14.854;2023-04-03T11:44:52;2.38;;;1.55;;
76475;SDS011;65308;50.078;14.854;2023-04-03T11:47:44;3.50;;;1.77;;
76475;SDS011;65308;50.078;14.854;2023-04-03T11:53:26;4.05;;;1.80;;
76475;SDS011;65308;50.078;14.854;2023-04-03T11:56:26;3.80;;;1.85;;
76475;SDS011;65308;50.078;14.854;2023-04-03T12:01:47;4.05;;;2.10;;
76475;SDS011;65308;50.078;14.854;2023-04-03T12:04:17;3.22;;;1.63;;
76475;SDS011;65308;50.078;14.854;2023-04-03T12:12:57;2.88;;;1.50;;
76475;SDS011;65308;50.078;14.854;2023-04-03T12:18:36;4.30;;;1.80;;
76475;SDS011;65308;50.078;14.854;2023-04-03T12:21:07;3.80;;;1.83;;
76475;SDS011;65308;50.078;14.854;2023-04-03T12:26:35;3.38;;;1.50;;
76475;SDS011;65308;50.078;14.854;2023-04-03T12:29:14;3.08;;;1.77;;
76475;SDS011;65308;50.078;14.854;2023-04-03T12:31:46;3.92;;;1.60;;
76475;SDS011;65308;50.078;14.854;2023-04-03T12:34:26;3.63;;;1.70;;
76475;SDS011;65308;50.078;14.854;2023-04-03T12:37:08;3.53;;;1.80;;
76475;SDS011;65308;50.078;14.854;2023-04-03T12:39:50;3.60;;;1.67;;
76475;SDS011;65308;50.078;14.854;2023-04-03T12:42:29;4.15;;;1.65;;
76475;SDS011;65308;50.078;14.854;2023-04-03T12:45:09;3.45;;;1.80;;
76475;SDS011;65308;50.078;14.854;2023-04-03T12:47:43;3.05;;;1.65;;
76475;SDS011;65308;50.078;14.854;2023-04-03T12:52:45;3.00;;;1.50;;
76475;SDS011;65308;50.078;14.854;2023-04-03T12:55:18;4.65;;;1.90;;
76475;SDS011;65308;50.078;14.854;2023-04-03T12:57:47;2.85;;;1.60;;
76475;SDS011;65308;50.078;14.854;2023-04-03T13:03:06;3.83;;;2.00;;
76475;SDS011;65308;50.078;14.854;2023-04-03T13:05:50;3.33;;;1.60;;
76475;SDS011;65308;50.078;14.854;2023-04-03T13:08:17;3.35;;;1.60;;
76475;SDS011;65308;50.078;14.854;2023-04-03T13:10:49;3.70;;;1.90;;
76475;SDS011;65308;50.078;14.854;2023-04-03T13:13:20;3.22;;;1.65;;
76475;SDS011;65308;50.078;14.854;2023-04-03T13:15:48;4.25;;;1.80;;
76475;SDS011;65308;50.078;14.854;2023-04-03T13:18:27;4.03;;;1.98;;
76475;SDS011;65308;50.078;14.854;2023-04-03T13:21:01;4.13;;;1.73;;
76475;SDS011;65308;50.078;14.854;2023-04-03T13:23:31;4.05;;;1.60;;
76475;SDS011;65308;50.078;14.854;2023-04-03T13:26:00;2.28;;;1.42;;
76475;SDS011;65308;50.078;14.854;2023-04-03T13:28:29;3.47;;;1.50;;
76475;SDS011;65308;50.078;14.854;2023-04-03T13:31:02;3.30;;;1.70;;
76475;SDS011;65308;50.078;14.854;2023-04-03T13:33:33;3.30;;;1.50;;
76475;SDS011;65308;50.078;14.854;2023-04-03T13:36:05;3.50;;;1.75;;
76475;SDS011;65308;50.078;14.854;2023-04-03T13:38:34;4.18;;;1.70;;
76475;SDS011;65308;50.078;14.854;2023-04-03T13:41:02;5.68;;;2.03;;
76475;SDS011;65308;50.078;14.854;2023-04-03T13:43:32;3.60;;;1.70;;
76475;SDS011;65308;50.078;14.854;2023-04-03T13:46:03;4.15;;;1.65;;
76475;SDS011;65308;50.078;14.854;2023-04-03T13:48:39;2.90;;;1.40;;
76475;SDS011;65308;50.078;14.854;2023-04-03T13:51:18;4.63;;;1.80;;
76475;SDS011;65308;50.078;14.854;2023-04-03T13:53:49;3.95;;;1.63;;
76475;SDS011;65308;50.078;14.854;2023-04-03T13:56:23;4.65;;;1.80;;
76475;SDS011;65308;50.078;14.854;2023-04-03T13:58:54;3.83;;;1.83;;
76475;SDS011;65308;50.078;14.854;2023-04-03T14:01:25;4.00;;;1.83;;
76475;SDS011;65308;50.078;14.854;2023-04-03T14:03:59;2.63;;;1.55;;
76475;SDS011;65308;50.078;14.854;2023-04-03T14:06:29;4.78;;;1.92;;
76475;SDS011;65308;50.078;14.854;2023-04-03T14:08:55;3.72;;;1.77;;
76475;SDS011;65308;50.078;14.854;2023-04-03T14:11:22;3.42;;;1.70;;
76475;SDS011;65308;50.078;14.854;2023-04-03T14:13:53;3.35;;;1.70;;
76475;SDS011;65308;50.078;14.854;2023-04-03T14:16:25;4.38;;;1.85;;
76475;SDS011;65308;50.078;14.854;2023-04-03T14:18:55;3.22;;;1.80;;
76475;SDS011;65308;50.078;14.854;2023-04-03T14:21:22;3.38;;;1.70;;
76475;SDS011;65308;50.078;14.854;2023-04-03T14:23:51;3.78;;;1.70;;
76475;SDS011;65308;50.078;14.854;2023-04-03T14:26:18;3.75;;;2.05;;
76475;SDS011;65308;50.078;14.854;2023-04-03T14:28:48;3.13;;;1.73;;
76475;SDS011;65308;50.078;14.854;2023-04-03T14:31:16;3.35;;;1.60;;
76475;SDS011;65308;50.078;14.854;2023-04-03T14:33:45;4.00;;;1.73;;
76475;SDS011;65308;50.078;14.854;2023-04-03T14:36:13;3.95;;;1.83;;
76475;SDS011;65308;50.078;14.854;2023-04-03T14:38:41;5.30;;;1.90;;
76475;SDS011;65308;50.078;14.854;2023-04-03T14:41:12;3.10;;;1.73;;
76475;SDS011;65308;50.078;14.854;2023-04-03T14:43:40;4.70;;;1.88;;
76475;SDS011;65308;50.078;14.854;2023-04-03T14:46:11;4.88;;;2.03;;
76475;SDS011;65308;50.078;14.854;2023-04-03T14:48:40;4.28;;;1.70;;
76475;SDS011;65308;50.078;14.854;2023-04-03T14:51:08;3.45;;;1.70;;
76475;SDS011;65308;50.078;14.854;2023-04-03T14:53:36;3.65;;;1.60;;
76475;SDS011;65308;50.078;14.854;2023-04-03T14:56:04;3.63;;;1.70;;
76475;SDS011;65308;50.078;14.854;2023-04-03T14:58:38;3.30;;;1.75;;
76475;SDS011;65308;50.078;14.854;2023-04-03T15:01:05;3.67;;;2.05;;
76475;SDS011;65308;50.078;14.854;2023-04-03T15:03:31;4.25;;;1.90;;
76475;SDS011;65308;50.078;14.854;2023-04-03T15:05:58;4.15;;;1.83;;
76475;SDS011;65308;50.078;14.854;2023-04-03T15:08:26;3.92;;;1.90;;
76475;SDS011;65308;50.078;14.854;2023-04-03T15:10:55;3.88;;;1.83;;
76475;SDS011;65308;50.078;14.854;2023-04-03T15:15:55;3.47;;;1.80;;
76475;SDS011;65308;50.078;14.854;2023-04-03T15:18:22;4.85;;;1.90;;
76475;SDS011;65308;50.078;14.854;2023-04-03T15:20:56;3.67;;;1.83;;
76475;SDS011;65308;50.078;14.854;2023-04-03T15:23:23;3.28;;;1.83;;
76475;SDS011;65308;50.078;14.854;2023-04-03T15:25:51;3.15;;;1.70;;
76475;SDS011;65308;50.078;14.854;2023-04-03T15:28:22;4.47;;;1.77;;
76475;SDS011;65308;50.078;14.854;2023-04-03T15:30:53;4.13;;;1.92;;
76475;SDS011;65308;50.078;14.854;2023-04-03T15:33:21;4.25;;;1.70;;